全部
Jaime Gonzalez Airport (Cienfuegos) CFG 天气
|
Cienfuegos (CFG / MUCF)
晴天
静风 |
|
25 °C |
CFG终端机场天气预报
| Date | Time (CDT) | Flight Rules | Wind Dir. | Speed | Type | Height AGL (ft) | Visibility | Remarks | ||||||
|---|---|---|---|---|---|---|---|---|---|---|---|---|---|---|
| 04-五月 | 01:00 | VFR | 220° | 10 kt | Scattered | 2,000 | 9000 meters. | |||||||
| 04-五月 | 00:00 | VFR | 220° | 10 kt | Scattered | 2,000 | 9000 meters. | |||||||
| 03-五月 | 23:00 | VFR | 220° | 10 kt | Scattered | 2,000 | 9000 meters. | |||||||
CFG近期METAR历史数据
| Date | Time (CDT) | Flight Rules | Wind Dir. | Speed | Type | Height AGL (ft) | Visibility | Temp (°C) | Temp (°F) | Dew Point (°C) | Dew Point (°F) | Rel. Humid. | Pressure | Density Altitude | Remarks |
|---|---|---|---|---|---|---|---|---|---|---|---|---|---|---|---|
| gap in available data | |||||||||||||||
| 03-五月 | 23:50 | n/a | 320° | 1 kt | Missing | 25° | 77° | 23° | 73° | 89% | 1016 mb | 1,220 ft | |||
| 03-五月 | 22:50 | n/a | 80° | 2 kt | Missing | 25° | 77° | 23° | 73° | 89% | 1015 mb | 1,249 ft | |||
| 03-五月 | 21:50 | n/a | 50° | 3 kt | Missing | 26° | 78° | 23° | 73° | 84% | 1015 mb | 1,369 ft | |||
| 03-五月 | 20:50 | n/a | 170° | 2 kt | Missing | 27° | 80° | 25° | 77° | 89% | 1015 mb | 1,489 ft | |||
| 03-五月 | 19:50 | n/a | 260° | 2 kt | Missing | 28° | 82° | 25° | 77° | 84% | 1014 mb | 1,639 ft | |||
| 03-五月 | 18:50 | n/a | 220° | 8 kt | Missing | 30° | 86° | 25° | 77° | 75% | 1013 mb | 1,908 ft | |||
| 03-五月 | 17:50 | n/a | 220° | 12 kt | Missing | 30° | 86° | 24° | 75° | 70% | 1012 mb | 1,938 ft | |||
| 03-五月 | 16:50 | n/a | 220° | 12 kt | Missing | 31° | 87° | 24° | 75° | 66% | 1012 mb | 2,058 ft | |||
| 03-五月 | 15:50 | n/a | 210° | 13 kt | Missing | 31° | 87° | 24° | 75° | 66% | 1013 mb | 2,028 ft | |||
| 03-五月 | 14:50 | n/a | 220° | 12 kt | Missing | 31° | 87° | 24° | 75° | 66% | 1014 mb | 1,999 ft | |||
| 03-五月 | 13:50 | n/a | 230° | 10 kt | Missing | 32° | 89° | 23° | 73° | 59% | 1015 mb | 2,089 ft | |||
| 03-五月 | 12:50 | n/a | 220° | 7 kt | Missing | 32° | 89° | 23° | 73° | 59% | 1015 mb | 2,089 ft | |||
| 03-五月 | 11:50 | n/a | 250° | 9 kt | Missing | 31° | 87° | 24° | 75° | 66% | 1016 mb | 1,940 ft | |||
| 03-五月 | 10:50 | n/a | 220° | 9 kt | Missing | 31° | 87° | 23° | 73° | 63% | 1016 mb | 1,940 ft | |||
| 03-五月 | 09:50 | n/a | 200° | 5 kt | Missing | 29° | 84° | 24° | 75° | 74% | 1015 mb | 1,729 ft | |||
| 03-五月 | 08:50 | n/a | 100° | 2 kt | Missing | 26° | 78° | 23° | 73° | 84% | 1015 mb | 1,369 ft | |||
| 03-五月 | 07:50 | n/a | 70° | 3 kt | Missing | 23° | 73° | 22° | 71° | 94% | 1014 mb | 1,039 ft | |||
| 03-五月 | 06:50 | n/a | 50° | 2 kt | Missing | 21° | 69° | 21° | 69° | 100% | 1014 mb | 799 ft | |||
| 03-五月 | 05:50 | n/a | 90° | 2 kt | Missing | 22° | 71° | 21° | 69° | 94% | 1014 mb | 919 ft | |||
| 03-五月 | 04:50 | n/a | 40° | 3 kt | Missing | 22° | 71° | 21° | 69° | 94% | 1014 mb | 919 ft | |||
| 03-五月 | 03:50 | n/a | 110° | 4 kt | Missing | 22° | 71° | 22° | 71° | 100% | 1014 mb | 919 ft | |||
| 03-五月 | 02:50 | n/a | 110° | 1 kt | Missing | 24° | 75° | 23° | 73° | 94% | 1014 mb | 1,159 ft | |||
| 03-五月 | 01:50 | n/a | 190° | 3 kt | Missing | 25° | 77° | 24° | 75° | 94% | 1015 mb | 1,249 ft | |||
| 03-五月 | 00:50 | n/a | 160° | 3 kt | Missing | 25° | 77° | 24° | 75° | 94% | 1015 mb | 1,249 ft | |||
登录
| 您的浏览器不支持. 升级您的浏览器 |
